createdAt,value
2023-04-22T00:02:53.825Z,11.36
2023-04-22T00:07:55.481Z,11.27
2023-04-22T00:12:56.930Z,11.18
2023-04-22T00:17:59.082Z,10.97
2023-04-22T00:23:00.628Z,10.94
2023-04-22T00:28:02.079Z,10.95
2023-04-22T00:33:03.776Z,10.91
2023-04-22T00:38:05.372Z,10.83
2023-04-22T00:43:08.955Z,10.70
2023-04-22T00:48:10.585Z,10.66
2023-04-22T00:53:12.196Z,10.58
2023-04-22T00:58:14.193Z,10.51
2023-04-22T01:03:15.819Z,10.42
2023-04-22T01:08:17.568Z,10.27
2023-04-22T01:13:19.024Z,10.29
2023-04-22T01:18:20.641Z,10.26
2023-04-22T01:23:22.637Z,10.29
2023-04-22T01:28:24.609Z,10.24
2023-04-22T01:33:26.394Z,10.15
2023-04-22T01:38:28.879Z,10.13
2023-04-22T01:43:33.660Z,10.07
2023-04-22T01:48:35.967Z,9.99
2023-04-22T01:53:37.462Z,9.98
2023-04-22T01:58:40.437Z,9.96
2023-04-22T02:03:42.074Z,9.94
2023-04-22T02:08:43.637Z,9.87
2023-04-22T02:13:45.060Z,9.78
2023-04-22T02:18:46.476Z,9.72
2023-04-22T02:23:47.945Z,9.72
2023-04-22T02:28:49.390Z,9.66
2023-04-22T02:33:51.046Z,9.66
2023-04-22T02:38:52.464Z,9.60
2023-04-22T02:43:53.907Z,9.54
2023-04-22T02:48:55.519Z,9.47
2023-04-22T02:53:56.969Z,9.42
2023-04-22T02:58:58.402Z,9.41
2023-04-22T03:04:00.072Z,9.41
2023-04-22T03:09:01.898Z,9.35
2023-04-22T03:14:03.340Z,9.26
2023-04-22T03:19:04.787Z,9.19
2023-04-22T03:24:06.438Z,9.13
2023-04-22T03:29:07.910Z,9.11
2023-04-22T03:34:09.361Z,9.02
2023-04-22T03:39:10.798Z,8.98
2023-04-22T03:44:12.217Z,8.94
2023-04-22T03:49:13.686Z,8.96
2023-04-22T03:54:15.219Z,8.96
2023-04-22T03:59:18.073Z,8.98
2023-04-22T04:04:20.428Z,9.03
2023-04-22T04:09:22.128Z,9.08
2023-04-22T04:14:23.612Z,9.09
2023-04-22T04:19:25.125Z,9.13
2023-04-22T04:24:26.594Z,9.19
2023-04-22T04:29:28.090Z,9.26
2023-04-22T04:34:29.516Z,9.27
2023-04-22T04:39:31.056Z,9.29
2023-04-22T04:44:32.466Z,9.29
2023-04-22T04:49:39.813Z,9.34
2023-04-22T04:54:41.456Z,9.61
2023-04-22T04:59:42.893Z,9.89
2023-04-22T05:04:44.419Z,10.10
2023-04-22T05:09:45.930Z,10.22
2023-04-22T05:14:47.364Z,10.46
2023-04-22T05:19:48.880Z,10.59
2023-04-22T05:24:50.390Z,10.86
2023-04-22T05:29:51.815Z,10.99
2023-04-22T05:34:53.238Z,11.18
2023-04-22T05:39:54.813Z,11.45
2023-04-22T05:44:56.311Z,11.66
2023-04-22T05:49:57.747Z,11.98
2023-04-22T05:54:59.163Z,12.01
2023-04-22T06:00:00.842Z,12.10
2023-04-22T06:05:02.593Z,12.33
2023-04-22T06:10:05.627Z,12.53
2023-04-22T06:15:07.629Z,12.75
2023-04-22T06:20:09.428Z,12.97
2023-04-22T06:25:10.914Z,13.17
2023-04-22T06:30:12.628Z,13.26
2023-04-22T06:35:14.189Z,13.44
2023-04-22T06:40:15.731Z,13.59
2023-04-22T06:45:17.250Z,13.84
2023-04-22T06:50:18.741Z,13.76
2023-04-22T06:55:20.232Z,13.77
2023-04-22T07:00:21.696Z,13.95
2023-04-22T07:05:23.163Z,14.09
2023-04-22T07:10:24.569Z,14.24
2023-04-22T07:15:26.042Z,14.43
2023-04-22T07:20:27.501Z,14.67
2023-04-22T07:25:29.047Z,14.73
2023-04-22T07:30:30.762Z,14.80
2023-04-22T07:35:32.221Z,14.86
2023-04-22T07:40:33.632Z,15.11
2023-04-22T07:45:35.206Z,15.15
2023-04-22T07:50:38.593Z,15.30
2023-04-22T07:55:40.353Z,15.60
2023-04-22T08:00:42.110Z,15.83
2023-04-22T08:05:43.620Z,16.00
2023-04-22T08:10:45.044Z,16.23
2023-04-22T08:15:46.608Z,16.41
2023-04-22T08:20:48.074Z,16.71
2023-04-22T08:25:49.992Z,17.02
2023-04-22T08:30:51.434Z,16.96
2023-04-22T08:35:53.052Z,17.28
2023-04-22T08:40:57.014Z,17.50
2023-04-22T08:45:58.521Z,17.64
2023-04-22T08:51:00.526Z,17.82
2023-04-22T08:56:02.066Z,18.11
2023-04-22T09:01:03.789Z,18.33
2023-04-22T09:06:06.267Z,18.50
2023-04-22T09:11:07.730Z,18.62
2023-04-22T09:16:10.121Z,18.78
2023-04-22T09:21:11.679Z,18.84
2023-04-22T09:26:15.034Z,18.94
2023-04-22T09:31:16.568Z,19.24
2023-04-22T09:36:22.580Z,19.36
2023-04-22T09:41:31.555Z,19.52
2023-04-22T09:46:33.980Z,19.59
2023-04-22T09:51:35.557Z,19.78
2023-04-22T09:56:50.239Z,19.91
2023-04-22T10:02:07.163Z,19.97
2023-04-22T10:07:08.769Z,20.08
2023-04-22T10:12:11.285Z,20.10
2023-04-22T10:17:13.525Z,20.13
2023-04-22T10:22:15.331Z,20.28
2023-04-22T10:27:21.556Z,20.27
2023-04-22T10:32:22.933Z,20.20
2023-04-22T10:37:25.377Z,20.13
2023-04-22T10:42:28.528Z,20.28
2023-04-22T10:47:32.550Z,20.25
2023-04-22T10:52:34.035Z,20.30
2023-04-22T10:57:43.844Z,20.37
2023-04-22T11:02:46.533Z,20.33
2023-04-22T11:07:53.906Z,20.33
2023-04-22T11:12:55.715Z,20.31
2023-04-22T11:17:57.608Z,20.29
2023-04-22T11:22:59.731Z,20.36
2023-04-22T11:28:01.278Z,20.29
2023-04-22T11:33:02.849Z,20.48
2023-04-22T11:38:06.106Z,20.33
2023-04-22T11:43:08.890Z,20.22
2023-04-22T11:48:11.822Z,20.02
2023-04-22T11:53:18.430Z,20.20
2023-04-22T11:58:25.222Z,20.29
2023-04-22T12:03:28.918Z,20.52
2023-04-22T12:08:44.350Z,20.65
2023-04-22T12:13:46.724Z,20.77
2023-04-22T12:18:48.091Z,20.62
2023-04-22T12:23:59.378Z,20.71
2023-04-22T12:29:01.230Z,20.68
2023-04-22T12:34:02.815Z,20.67
2023-04-22T12:39:04.824Z,20.67
2023-04-22T12:44:06.305Z,20.53
2023-04-22T12:49:07.793Z,20.55
2023-04-22T12:54:10.646Z,20.50
2023-04-22T12:59:12.937Z,20.72
2023-04-22T13:04:14.475Z,20.84
2023-04-22T13:09:16.515Z,20.63
2023-04-22T13:14:18.523Z,20.62
2023-04-22T13:19:20.068Z,20.58
2023-04-22T13:24:21.526Z,20.90
2023-04-22T13:29:23.213Z,20.73
2023-04-22T13:34:24.719Z,20.72
2023-04-22T13:39:26.293Z,20.72
2023-04-22T13:44:27.721Z,20.66
2023-04-22T13:49:29.278Z,20.59
2023-04-22T13:54:31.230Z,20.63
2023-04-22T13:59:35.087Z,20.55
2023-04-22T14:04:36.602Z,20.62
2023-04-22T14:09:38.232Z,20.67
2023-04-22T14:14:40.015Z,20.73
2023-04-22T14:19:42.324Z,20.89
2023-04-22T14:24:43.977Z,20.82
2023-04-22T14:29:46.149Z,20.81
2023-04-22T14:34:48.017Z,20.79
2023-04-22T14:39:49.514Z,20.83
2023-04-22T14:44:51.093Z,20.86
2023-04-22T14:49:52.595Z,20.81
2023-04-22T14:54:54.090Z,20.80
2023-04-22T14:59:55.542Z,20.71
2023-04-22T15:04:56.971Z,20.55
2023-04-22T15:10:01.310Z,20.61
2023-04-22T15:15:02.901Z,20.60
2023-04-22T15:20:06.532Z,20.48
2023-04-22T15:25:10.746Z,20.52
2023-04-22T15:30:12.462Z,20.39
2023-04-22T15:35:14.271Z,20.44
2023-04-22T15:40:15.783Z,20.33
2023-04-22T15:45:17.254Z,20.40
2023-04-22T15:50:19.286Z,20.35
2023-04-22T15:55:21.058Z,20.35
2023-04-22T16:00:22.548Z,20.27
2023-04-22T16:05:25.196Z,20.29
2023-04-22T16:10:27.923Z,20.12
2023-04-22T16:15:29.406Z,19.96
2023-04-22T16:20:31.159Z,19.79
2023-04-22T16:25:32.638Z,19.63
2023-04-22T16:30:34.175Z,19.54
2023-04-22T16:35:35.833Z,19.33
2023-04-22T16:40:38.699Z,19.29
2023-04-22T16:45:40.492Z,19.28
2023-04-22T16:50:41.950Z,19.16
2023-04-22T16:55:43.467Z,19.09
2023-04-22T17:00:47.494Z,19.07
2023-04-22T17:05:49.297Z,18.98
2023-04-22T17:10:52.369Z,18.86
2023-04-22T17:15:53.835Z,18.77
2023-04-22T17:20:55.901Z,18.73
2023-04-22T17:25:57.347Z,18.69
2023-04-22T17:30:58.910Z,18.61
2023-04-22T17:36:00.674Z,18.52
2023-04-22T17:41:02.286Z,18.38
2023-04-22T17:46:03.756Z,18.28
2023-04-22T17:51:06.563Z,18.17
2023-04-22T17:56:08.916Z,18.10
2023-04-22T18:01:10.539Z,18.00
2023-04-22T18:06:12.008Z,17.91
2023-04-22T18:11:13.586Z,17.83
2023-04-22T18:16:15.078Z,17.67
2023-04-22T18:21:16.942Z,17.60
2023-04-22T18:26:18.360Z,17.52
2023-04-22T18:31:20.661Z,17.40
2023-04-22T18:36:22.406Z,17.29
2023-04-22T18:41:25.482Z,17.17
2023-04-22T18:46:27.037Z,16.98
2023-04-22T18:51:30.119Z,16.87
2023-04-22T18:56:32.935Z,16.84
2023-04-22T19:01:35.522Z,16.72
2023-04-22T19:06:37.002Z,16.57
2023-04-22T19:11:38.511Z,16.46
2023-04-22T19:16:40.312Z,16.46
2023-04-22T19:21:41.830Z,16.36
2023-04-22T19:26:43.461Z,16.34
2023-04-22T19:31:45.579Z,16.46
2023-04-22T19:36:47.030Z,16.29
2023-04-22T19:41:48.580Z,16.19
2023-04-22T19:46:50.383Z,16.15
2023-04-22T19:51:52.854Z,16.01
2023-04-22T19:56:54.948Z,15.92
2023-04-22T20:01:56.576Z,15.98
2023-04-22T20:07:00.785Z,15.86
2023-04-22T20:12:05.103Z,15.87
2023-04-22T20:17:07.381Z,15.77
2023-04-22T20:22:09.557Z,15.75
2023-04-22T20:27:11.697Z,15.65
2023-04-22T20:32:13.328Z,15.54
2023-04-22T20:37:19.841Z,15.50
2023-04-22T20:42:23.192Z,15.44
2023-04-22T20:47:25.030Z,15.32
2023-04-22T20:52:26.627Z,15.15
2023-04-22T20:57:28.324Z,15.00
2023-04-22T21:02:31.536Z,14.85
2023-04-22T21:07:34.649Z,14.72
2023-04-22T21:12:36.652Z,14.70
2023-04-22T21:17:41.557Z,14.58
2023-04-22T21:22:44.070Z,14.54
2023-04-22T21:27:46.128Z,14.55
2023-04-22T21:32:47.635Z,14.58
2023-04-22T21:37:49.094Z,14.64
2023-04-22T21:42:51.025Z,14.59
2023-04-22T21:47:52.438Z,14.61
2023-04-22T21:52:53.917Z,14.58
2023-04-22T21:57:55.613Z,14.49
2023-04-22T22:02:57.257Z,14.44
2023-04-22T22:07:58.751Z,14.23
2023-04-22T22:13:00.783Z,14.03
2023-04-22T22:18:04.137Z,13.88
2023-04-22T22:23:05.616Z,13.80
2023-04-22T22:28:07.047Z,13.75
2023-04-22T22:33:08.707Z,13.55
2023-04-22T22:38:10.298Z,13.57
2023-04-22T22:43:13.419Z,13.56
2023-04-22T22:48:14.900Z,13.52
2023-04-22T22:53:16.555Z,13.41
2023-04-22T22:58:17.964Z,13.27
2023-04-22T23:03:20.008Z,13.12
2023-04-22T23:08:21.811Z,12.98
2023-04-22T23:13:23.288Z,12.88
2023-04-22T23:18:26.753Z,12.81
2023-04-22T23:23:29.812Z,12.77
2023-04-22T23:28:31.462Z,12.66
2023-04-22T23:33:35.060Z,12.55
2023-04-22T23:38:36.516Z,12.61
2023-04-22T23:43:37.930Z,12.59
2023-04-22T23:48:39.511Z,12.48
2023-04-22T23:53:40.947Z,12.39
2023-04-22T23:58:42.777Z,12.27
